ALK119 VCBI-VRMG
Flight info
| Callsign | ALK119 |
|---|---|
| Flight time | 1h 34m |
| Altitude | 38000 |
| Route | LALUM DCT PADLA G454 DUKET |
| Aircraft | A320/M-SDE3FGHIRWY/LB1 |
Departure
| Time | 2026-05-08 13:47 |
|---|---|
| Airport | Bandaranaike International Colombo Airport (VCBI) |
Arrival
| Time | 2026-05-08 15:22 |
|---|---|
| Airport | Gan International Airport (VRMG) |
| Time | Latitude | Longitude | Altitude | Speed | Heading |
|---|---|---|---|---|---|
| 2026-05-08 13:26 | 7.17629 | 79.88578 | 27 ft | 0 kts | 217° |
| 2026-05-08 13:36 | 7.17631 | 79.88579 | 27 ft | 2 kts | 217° |
| 2026-05-08 13:36 | 7.17652 | 79.88594 | 27 ft | 4 kts | 211° |
| 2026-05-08 13:36 | 7.17676 | 79.88608 | 27 ft | 4 kts | 210° |
| 2026-05-08 13:36 | 7.17696 | 79.88622 | 27 ft | 4 kts | 245° |
| 2026-05-08 13:37 | 7.17698 | 79.88643 | 27 ft | 4 kts | 288° |
| 2026-05-08 13:37 | 7.17685 | 79.88665 | 27 ft | 3 kts | 308° |
| 2026-05-08 13:37 | 7.17682 | 79.88669 | 27 ft | 0 kts | 307° |
| 2026-05-08 13:39 | 7.17683 | 79.88668 | 27 ft | 1 kts | 307° |
| 2026-05-08 13:40 | 7.17684 | 79.88667 | 27 ft | 0 kts | 307° |
| 2026-05-08 13:40 | 7.17686 | 79.88664 | 27 ft | 1 kts | 307° |
| 2026-05-08 13:40 | 7.17716 | 79.88624 | 27 ft | 8 kts | 307° |
| 2026-05-08 13:40 | 7.17740 | 79.88591 | 27 ft | 4 kts | 307° |
| 2026-05-08 13:41 | 7.17753 | 79.88574 | 27 ft | 1 kts | 307° |
| 2026-05-08 13:41 | 7.17764 | 79.88559 | 27 ft | 9 kts | 307° |
| 2026-05-08 13:41 | 7.17798 | 79.88515 | 27 ft | 6 kts | 308° |
| 2026-05-08 13:41 | 7.17814 | 79.88494 | 27 ft | 2 kts | 308° |
| 2026-05-08 13:42 | 7.17816 | 79.88491 | 27 ft | 0 kts | 308° |
| 2026-05-08 13:42 | 7.17827 | 79.88477 | 27 ft | 8 kts | 308° |
| 2026-05-08 13:42 | 7.17860 | 79.88440 | 27 ft | 5 kts | 325° |
| 2026-05-08 13:42 | 7.17870 | 79.88426 | 27 ft | 3 kts | 279° |
| 2026-05-08 13:43 | 7.17832 | 79.88376 | 28 ft | 8 kts | 205° |
| 2026-05-08 13:43 | 7.17789 | 79.88344 | 28 ft | 9 kts | 243° |
| 2026-05-08 13:43 | 7.17804 | 79.88302 | 28 ft | 7 kts | 306° |
| 2026-05-08 13:43 | 7.17847 | 79.88244 | 30 ft | 10 kts | 307° |
| 2026-05-08 13:44 | 7.17888 | 79.88216 | 30 ft | 7 kts | 354° |
| 2026-05-08 13:44 | 7.17960 | 79.88257 | 29 ft | 21 kts | 37° |
| 2026-05-08 13:44 | 7.18089 | 79.88355 | 29 ft | 23 kts | 37° |
| 2026-05-08 13:44 | 7.18219 | 79.88456 | 27 ft | 27 kts | 37° |
| 2026-05-08 13:45 | 7.18372 | 79.88572 | 28 ft | 27 kts | 37° |
| 2026-05-08 13:45 | 7.18518 | 79.88683 | 28 ft | 25 kts | 38° |
| 2026-05-08 13:45 | 7.18648 | 79.88791 | 29 ft | 23 kts | 40° |
| 2026-05-08 13:45 | 7.18733 | 79.88864 | 29 ft | 8 kts | 9° |
| 2026-05-08 13:46 | 7.18743 | 79.88855 | 29 ft | 0 kts | 281° |
| 2026-05-08 13:46 | 7.18741 | 79.88849 | 29 ft | 2 kts | 257° |
| 2026-05-08 13:46 | 7.18738 | 79.88844 | 29 ft | 1 kts | 239° |
| 2026-05-08 13:46 | 7.18725 | 79.88834 | 29 ft | 1 kts | 216° |
| 2026-05-08 13:47 | 7.18697 | 79.88814 | 29 ft | 17 kts | 216° |
| 2026-05-08 13:47 | 7.18360 | 79.88562 | 28 ft | 104 kts | 217° |
| 2026-05-08 13:47 | 7.17583 | 79.87964 | 84 ft | 169 kts | 218° |
| 2026-05-08 13:47 | 7.16624 | 79.87205 | 865 ft | 181 kts | 219° |
| 2026-05-08 13:48 | 7.15609 | 79.86401 | 1797 ft | 192 kts | 218° |
| 2026-05-08 13:48 | 7.14490 | 79.85534 | 2314 ft | 212 kts | 217° |
| 2026-05-08 13:48 | 7.13248 | 79.84616 | 2797 ft | 230 kts | 216° |
| 2026-05-08 13:48 | 7.11909 | 79.83673 | 3462 ft | 239 kts | 215° |
| 2026-05-08 13:49 | 7.10529 | 79.82745 | 4201 ft | 244 kts | 213° |
| 2026-05-08 13:49 | 7.09092 | 79.81815 | 4915 ft | 252 kts | 214° |
| 2026-05-08 13:49 | 7.07628 | 79.80705 | 5289 ft | 274 kts | 219° |
| 2026-05-08 13:49 | 7.06133 | 79.79454 | 5963 ft | 283 kts | 220° |
| 2026-05-08 13:50 | 7.04611 | 79.78173 | 6741 ft | 288 kts | 219° |
| 2026-05-08 13:50 | 7.03043 | 79.76884 | 7536 ft | 292 kts | 218° |
| 2026-05-08 13:50 | 7.01442 | 79.75601 | 8306 ft | 296 kts | 218° |
| 2026-05-08 13:50 | 6.99807 | 79.74322 | 9035 ft | 300 kts | 217° |
| 2026-05-08 13:51 | 6.98139 | 79.73035 | 9752 ft | 305 kts | 217° |
| 2026-05-08 13:51 | 6.96431 | 79.71717 | 10244 ft | 319 kts | 217° |
| 2026-05-08 13:51 | 6.94609 | 79.70317 | 10477 ft | 339 kts | 217° |
| 2026-05-08 13:51 | 6.92705 | 79.68859 | 11046 ft | 347 kts | 217° |
| 2026-05-08 13:52 | 6.90779 | 79.67383 | 11718 ft | 350 kts | 217° |
| 2026-05-08 13:52 | 6.88835 | 79.65883 | 12418 ft | 354 kts | 218° |
| 2026-05-08 13:52 | 6.87153 | 79.64055 | 13085 ft | 358 kts | 232° |
| 2026-05-08 13:52 | 6.85612 | 79.62077 | 13767 ft | 361 kts | 232° |
| 2026-05-08 13:53 | 6.84080 | 79.60060 | 14428 ft | 364 kts | 232° |
| 2026-05-08 13:53 | 6.82546 | 79.58018 | 15066 ft | 367 kts | 232° |
| 2026-05-08 13:53 | 6.81016 | 79.55999 | 15665 ft | 369 kts | 232° |
| 2026-05-08 13:53 | 6.79436 | 79.53946 | 16258 ft | 373 kts | 232° |
| 2026-05-08 13:54 | 6.77830 | 79.51883 | 16848 ft | 376 kts | 231° |
| 2026-05-08 13:54 | 6.76205 | 79.49811 | 17418 ft | 379 kts | 231° |
| 2026-05-08 13:54 | 6.74560 | 79.47729 | 17971 ft | 381 kts | 231° |
| 2026-05-08 13:54 | 6.72906 | 79.45636 | 18511 ft | 384 kts | 231° |
| 2026-05-08 13:55 | 6.71238 | 79.43525 | 19032 ft | 387 kts | 231° |
| 2026-05-08 13:55 | 6.69554 | 79.41391 | 19537 ft | 390 kts | 231° |
| 2026-05-08 13:55 | 6.66163 | 79.37086 | 20514 ft | 397 kts | 231° |
| 2026-05-08 13:56 | 6.64446 | 79.34902 | 20993 ft | 400 kts | 231° |
| 2026-05-08 13:56 | 6.62712 | 79.32701 | 21463 ft | 402 kts | 231° |
| 2026-05-08 13:56 | 6.60966 | 79.30484 | 21916 ft | 406 kts | 231° |
| 2026-05-08 13:56 | 6.59209 | 79.28251 | 22369 ft | 408 kts | 231° |
| 2026-05-08 13:57 | 6.57436 | 79.26002 | 22811 ft | 411 kts | 231° |
| 2026-05-08 13:57 | 6.55653 | 79.23743 | 23237 ft | 414 kts | 231° |
| 2026-05-08 13:57 | 6.53855 | 79.21463 | 23648 ft | 417 kts | 231° |
| 2026-05-08 13:57 | 6.52053 | 79.19174 | 24048 ft | 420 kts | 231° |
| 2026-05-08 13:58 | 6.50232 | 79.16858 | 24434 ft | 423 kts | 231° |
| 2026-05-08 13:58 | 6.48403 | 79.14536 | 24808 ft | 425 kts | 230° |
| 2026-05-08 13:58 | 6.46560 | 79.12200 | 25170 ft | 428 kts | 230° |
| 2026-05-08 13:58 | 6.44706 | 79.09852 | 25520 ft | 430 kts | 230° |
| 2026-05-08 13:59 | 6.42839 | 79.07489 | 25862 ft | 433 kts | 230° |
| 2026-05-08 13:59 | 6.40960 | 79.05111 | 26195 ft | 435 kts | 230° |
| 2026-05-08 13:59 | 6.39070 | 79.02719 | 26511 ft | 438 kts | 230° |
| 2026-05-08 13:59 | 6.37176 | 79.00318 | 26826 ft | 440 kts | 230° |
| 2026-05-08 14:00 | 6.35267 | 78.97899 | 27130 ft | 443 kts | 230° |
| 2026-05-08 14:00 | 6.33354 | 78.95474 | 27428 ft | 445 kts | 230° |
| 2026-05-08 14:00 | 6.31425 | 78.93028 | 27720 ft | 447 kts | 230° |
| 2026-05-08 14:00 | 6.29502 | 78.90571 | 28005 ft | 449 kts | 232° |
| 2026-05-08 14:01 | 6.27844 | 78.87888 | 28280 ft | 454 kts | 242° |
| 2026-05-08 14:01 | 6.26507 | 78.85003 | 28532 ft | 457 kts | 243° |
| 2026-05-08 14:01 | 6.25176 | 78.82094 | 28788 ft | 459 kts | 243° |
| 2026-05-08 14:01 | 6.23832 | 78.79174 | 29040 ft | 461 kts | 243° |
| 2026-05-08 14:02 | 6.22477 | 78.76242 | 29298 ft | 463 kts | 243° |
| 2026-05-08 14:02 | 6.21118 | 78.73303 | 29530 ft | 465 kts | 243° |
| 2026-05-08 14:02 | 6.19752 | 78.70345 | 29763 ft | 468 kts | 243° |
| 2026-05-08 14:02 | 6.18381 | 78.67375 | 29998 ft | 470 kts | 243° |
| 2026-05-08 14:03 | 6.17006 | 78.64393 | 30230 ft | 472 kts | 243° |
| 2026-05-08 14:03 | 6.15623 | 78.61395 | 30460 ft | 473 kts | 243° |
| 2026-05-08 14:03 | 6.14187 | 78.58414 | 30664 ft | 474 kts | 238° |
| 2026-05-08 14:03 | 6.12382 | 78.55647 | 30870 ft | 473 kts | 229° |
| 2026-05-08 14:04 | 6.10358 | 78.53092 | 31075 ft | 474 kts | 229° |
| 2026-05-08 14:04 | 6.08268 | 78.50467 | 31278 ft | 476 kts | 229° |
| 2026-05-08 14:04 | 6.06224 | 78.47903 | 31545 ft | 476 kts | 229° |
| 2026-05-08 14:04 | 6.04161 | 78.45314 | 31849 ft | 475 kts | 229° |
| 2026-05-08 14:05 | 6.02097 | 78.42721 | 32144 ft | 474 kts | 229° |
| 2026-05-08 14:05 | 6.00041 | 78.40131 | 32433 ft | 474 kts | 229° |
| 2026-05-08 14:05 | 5.97994 | 78.37550 | 32713 ft | 473 kts | 229° |
| 2026-05-08 14:05 | 5.95943 | 78.34961 | 32999 ft | 473 kts | 229° |
| 2026-05-08 14:06 | 5.93897 | 78.32379 | 33285 ft | 472 kts | 229° |
| 2026-05-08 14:06 | 5.91852 | 78.29798 | 33562 ft | 472 kts | 229° |
| 2026-05-08 14:06 | 5.89809 | 78.27221 | 33835 ft | 472 kts | 229° |
| 2026-05-08 14:06 | 5.87763 | 78.24646 | 34103 ft | 471 kts | 229° |
| 2026-05-08 14:07 | 5.85716 | 78.22073 | 34371 ft | 470 kts | 229° |
| 2026-05-08 14:07 | 5.83680 | 78.19514 | 34624 ft | 470 kts | 229° |
| 2026-05-08 14:07 | 5.81639 | 78.16949 | 34878 ft | 470 kts | 229° |
| 2026-05-08 14:07 | 5.79601 | 78.14387 | 35119 ft | 469 kts | 229° |
| 2026-05-08 14:08 | 5.77564 | 78.11824 | 35361 ft | 469 kts | 229° |
| 2026-05-08 14:08 | 5.75532 | 78.09265 | 35587 ft | 468 kts | 229° |
| 2026-05-08 14:08 | 5.73505 | 78.06713 | 35807 ft | 468 kts | 228° |
| 2026-05-08 14:08 | 5.71296 | 78.04334 | 36017 ft | 464 kts | 218° |
| 2026-05-08 14:09 | 5.69625 | 78.03018 | 36157 ft | 460 kts | 211° |
| 2026-05-08 14:09 | 5.66848 | 78.01455 | 36356 ft | 455 kts | 200° |
| 2026-05-08 14:09 | 5.63866 | 78.00454 | 36525 ft | 450 kts | 189° |
| 2026-05-08 14:09 | 5.59735 | 78.00001 | 36774 ft | 444 kts | 176° |
| 2026-05-08 14:10 | 5.57691 | 78.00007 | 36929 ft | 443 kts | 177° |
| 2026-05-08 14:10 | 5.54614 | 78.00010 | 37176 ft | 441 kts | 177° |
| 2026-05-08 14:10 | 5.51548 | 78.00008 | 37457 ft | 439 kts | 177° |
| 2026-05-08 14:10 | 5.47508 | 78.00001 | 37750 ft | 438 kts | 177° |
| 2026-05-08 14:11 | 5.45453 | 77.99999 | 37795 ft | 437 kts | 177° |
| 2026-05-08 14:11 | 5.39378 | 78.00005 | 37813 ft | 436 kts | 177° |
| 2026-05-08 14:12 | 5.33320 | 78.00001 | 37813 ft | 436 kts | 177° |
| 2026-05-08 14:12 | 5.27250 | 77.99994 | 37813 ft | 436 kts | 177° |
| 2026-05-08 14:13 | 5.21229 | 77.99996 | 37813 ft | 435 kts | 177° |
| 2026-05-08 14:13 | 5.15130 | 78.00000 | 37813 ft | 435 kts | 177° |
| 2026-05-08 14:14 | 5.09116 | 78.00001 | 37815 ft | 435 kts | 177° |
| 2026-05-08 14:14 | 5.03054 | 78.00001 | 37815 ft | 435 kts | 177° |
| 2026-05-08 14:15 | 4.96996 | 78.00002 | 37817 ft | 436 kts | 177° |
| 2026-05-08 14:15 | 4.90935 | 77.99999 | 37820 ft | 435 kts | 177° |
| 2026-05-08 14:16 | 4.84869 | 77.99981 | 37816 ft | 436 kts | 181° |
| 2026-05-08 14:16 | 4.81906 | 77.99341 | 37817 ft | 440 kts | 201° |
| 2026-05-08 14:16 | 4.79173 | 77.97929 | 37815 ft | 443 kts | 207° |
| 2026-05-08 14:17 | 4.73627 | 77.95283 | 37802 ft | 442 kts | 202° |
| 2026-05-08 14:17 | 4.68039 | 77.92716 | 37799 ft | 443 kts | 202° |
| 2026-05-08 14:18 | 4.62869 | 77.89321 | 37796 ft | 447 kts | 214° |
| 2026-05-08 14:18 | 4.57984 | 77.85448 | 37799 ft | 449 kts | 216° |
| 2026-05-08 14:19 | 4.53128 | 77.81524 | 37804 ft | 448 kts | 216° |
| 2026-05-08 14:19 | 4.48216 | 77.77662 | 37808 ft | 448 kts | 215° |
| 2026-05-08 14:20 | 4.43281 | 77.73848 | 37812 ft | 448 kts | 215° |
| 2026-05-08 14:20 | 4.38349 | 77.70032 | 37816 ft | 448 kts | 215° |
| 2026-05-08 14:21 | 4.33432 | 77.66195 | 37821 ft | 448 kts | 215° |
| 2026-05-08 14:21 | 4.28514 | 77.62353 | 37823 ft | 448 kts | 215° |
| 2026-05-08 14:22 | 4.23586 | 77.58522 | 37825 ft | 448 kts | 215° |
| 2026-05-08 14:22 | 4.18657 | 77.54686 | 37825 ft | 448 kts | 215° |
| 2026-05-08 14:23 | 4.13769 | 77.50881 | 37825 ft | 448 kts | 215° |
| 2026-05-08 14:23 | 4.08811 | 77.47024 | 37827 ft | 448 kts | 215° |
| 2026-05-08 14:24 | 4.03895 | 77.43192 | 37830 ft | 448 kts | 215° |
| 2026-05-08 14:24 | 3.98981 | 77.39367 | 37830 ft | 448 kts | 215° |
| 2026-05-08 14:25 | 3.94086 | 77.35568 | 37826 ft | 448 kts | 215° |
| 2026-05-08 14:25 | 3.89188 | 77.31713 | 37825 ft | 448 kts | 218° |
| 2026-05-08 14:26 | 3.84524 | 77.27558 | 37823 ft | 449 kts | 221° |
| 2026-05-08 14:26 | 3.79980 | 77.23257 | 37823 ft | 450 kts | 221° |
| 2026-05-08 14:27 | 3.75394 | 77.18991 | 37824 ft | 450 kts | 220° |
| 2026-05-08 14:27 | 3.70764 | 77.14785 | 37824 ft | 450 kts | 220° |
| 2026-05-08 14:28 | 3.66121 | 77.10585 | 37829 ft | 450 kts | 220° |
| 2026-05-08 14:28 | 3.61495 | 77.06366 | 37828 ft | 450 kts | 220° |
| 2026-05-08 14:29 | 3.56873 | 77.02148 | 37827 ft | 450 kts | 220° |
| 2026-05-08 14:29 | 3.52244 | 76.97938 | 37824 ft | 449 kts | 220° |
| 2026-05-08 14:30 | 3.47617 | 76.93726 | 37826 ft | 450 kts | 220° |
| 2026-05-08 14:30 | 3.42993 | 76.89513 | 37825 ft | 450 kts | 220° |
| 2026-05-08 14:31 | 3.38356 | 76.85304 | 37824 ft | 450 kts | 220° |
| 2026-05-08 14:31 | 3.33729 | 76.81095 | 37827 ft | 450 kts | 220° |
| 2026-05-08 14:32 | 3.26782 | 76.74771 | 37830 ft | 450 kts | 220° |
| 2026-05-08 14:32 | 3.22156 | 76.70566 | 37830 ft | 450 kts | 220° |
| 2026-05-08 14:33 | 3.17528 | 76.66356 | 37832 ft | 450 kts | 220° |
| 2026-05-08 14:33 | 3.12899 | 76.62136 | 37832 ft | 450 kts | 220° |
| 2026-05-08 14:34 | 3.08266 | 76.57921 | 37831 ft | 450 kts | 220° |
| 2026-05-08 14:34 | 3.03657 | 76.53747 | 37830 ft | 450 kts | 220° |
| 2026-05-08 14:35 | 2.99020 | 76.49540 | 37832 ft | 450 kts | 220° |
| 2026-05-08 14:35 | 2.94390 | 76.45322 | 37833 ft | 450 kts | 220° |
| 2026-05-08 14:36 | 2.89753 | 76.41104 | 37832 ft | 451 kts | 220° |
| 2026-05-08 14:36 | 2.85115 | 76.36882 | 37830 ft | 451 kts | 220° |
| 2026-05-08 14:37 | 2.80471 | 76.32659 | 37830 ft | 451 kts | 220° |
| 2026-05-08 14:37 | 2.75829 | 76.28445 | 37831 ft | 451 kts | 220° |
| 2026-05-08 14:38 | 2.71181 | 76.24221 | 37831 ft | 451 kts | 220° |
| 2026-05-08 14:38 | 2.66528 | 76.20003 | 37830 ft | 451 kts | 220° |
| 2026-05-08 14:39 | 2.61880 | 76.15792 | 37828 ft | 451 kts | 220° |
| 2026-05-08 14:39 | 2.57228 | 76.11570 | 37829 ft | 451 kts | 220° |
| 2026-05-08 14:40 | 2.52580 | 76.07352 | 37832 ft | 452 kts | 221° |
| 2026-05-08 14:40 | 2.47930 | 76.03120 | 37833 ft | 452 kts | 221° |
| 2026-05-08 14:41 | 2.43273 | 75.98891 | 37832 ft | 452 kts | 221° |
| 2026-05-08 14:41 | 2.38620 | 75.94664 | 37830 ft | 452 kts | 221° |
| 2026-05-08 14:42 | 2.33965 | 75.90438 | 37833 ft | 453 kts | 221° |
| 2026-05-08 14:42 | 2.29296 | 75.86210 | 37834 ft | 453 kts | 221° |
| 2026-05-08 14:43 | 2.24633 | 75.81984 | 37835 ft | 453 kts | 221° |
| 2026-05-08 14:43 | 2.19973 | 75.77751 | 37836 ft | 452 kts | 221° |
| 2026-05-08 14:44 | 2.15316 | 75.73515 | 37835 ft | 452 kts | 221° |
| 2026-05-08 14:44 | 2.10685 | 75.69317 | 37833 ft | 453 kts | 221° |
| 2026-05-08 14:45 | 2.06025 | 75.65090 | 37834 ft | 453 kts | 221° |
| 2026-05-08 14:45 | 2.01356 | 75.60867 | 37836 ft | 453 kts | 220° |
| 2026-05-08 14:46 | 1.96581 | 75.56763 | 37834 ft | 452 kts | 218° |
| 2026-05-08 14:46 | 1.91730 | 75.52758 | 37830 ft | 452 kts | 218° |
| 2026-05-08 14:47 | 1.86883 | 75.48743 | 37828 ft | 453 kts | 218° |
| 2026-05-08 14:47 | 1.82068 | 75.44679 | 37832 ft | 453 kts | 219° |
| 2026-05-08 14:48 | 1.77253 | 75.40605 | 37834 ft | 454 kts | 219° |
| 2026-05-08 14:48 | 1.72428 | 75.36539 | 37834 ft | 454 kts | 218° |
| 2026-05-08 14:49 | 1.67622 | 75.32505 | 37835 ft | 454 kts | 218° |
| 2026-05-08 14:49 | 1.62782 | 75.28443 | 37834 ft | 455 kts | 218° |
| 2026-05-08 14:50 | 1.57947 | 75.24367 | 37835 ft | 455 kts | 218° |
| 2026-05-08 14:50 | 1.53068 | 75.20261 | 37834 ft | 456 kts | 218° |
| 2026-05-08 14:51 | 1.48241 | 75.16211 | 37836 ft | 456 kts | 218° |
| 2026-05-08 14:51 | 1.43379 | 75.12126 | 37834 ft | 457 kts | 218° |
| 2026-05-08 14:52 | 1.36085 | 75.05978 | 37836 ft | 457 kts | 218° |
| 2026-05-08 14:53 | 1.31225 | 75.01877 | 37836 ft | 457 kts | 218° |
| 2026-05-08 14:53 | 1.26353 | 74.97787 | 37836 ft | 458 kts | 218° |
| 2026-05-08 14:54 | 1.21483 | 74.93695 | 37836 ft | 458 kts | 218° |
| 2026-05-08 14:54 | 1.16603 | 74.89595 | 37837 ft | 458 kts | 218° |
| 2026-05-08 14:55 | 1.11722 | 74.85497 | 37836 ft | 459 kts | 218° |
| 2026-05-08 14:55 | 1.06837 | 74.81385 | 37837 ft | 459 kts | 218° |
| 2026-05-08 14:56 | 1.01947 | 74.77269 | 37840 ft | 459 kts | 218° |
| 2026-05-08 14:56 | 0.97058 | 74.73153 | 37836 ft | 460 kts | 218° |
| 2026-05-08 14:57 | 0.92156 | 74.69040 | 37839 ft | 460 kts | 218° |
| 2026-05-08 14:57 | 0.87252 | 74.64924 | 37841 ft | 461 kts | 218° |
| 2026-05-08 14:58 | 0.82347 | 74.60795 | 37843 ft | 461 kts | 218° |
| 2026-05-08 14:58 | 0.77481 | 74.56693 | 37844 ft | 461 kts | 218° |
| 2026-05-08 14:59 | 0.72570 | 74.52573 | 37807 ft | 462 kts | 218° |
| 2026-05-08 14:59 | 0.67603 | 74.48404 | 36482 ft | 465 kts | 218° |
| 2026-05-08 14:59 | 0.65137 | 74.46329 | 35934 ft | 462 kts | 218° |
| 2026-05-08 15:00 | 0.62689 | 74.44269 | 35386 ft | 459 kts | 218° |
| 2026-05-08 15:00 | 0.61072 | 74.42909 | 35013 ft | 458 kts | 218° |
| 2026-05-08 15:00 | 0.58640 | 74.40864 | 34454 ft | 456 kts | 218° |
| 2026-05-08 15:00 | 0.56220 | 74.38831 | 33903 ft | 454 kts | 218° |
| 2026-05-08 15:01 | 0.53809 | 74.36803 | 33349 ft | 452 kts | 218° |
| 2026-05-08 15:01 | 0.51412 | 74.34786 | 32800 ft | 449 kts | 218° |
| 2026-05-08 15:01 | 0.49029 | 74.32782 | 32251 ft | 447 kts | 218° |
| 2026-05-08 15:01 | 0.46653 | 74.30790 | 31713 ft | 444 kts | 218° |
| 2026-05-08 15:02 | 0.44292 | 74.28807 | 31179 ft | 441 kts | 218° |
| 2026-05-08 15:02 | 0.41952 | 74.26840 | 30661 ft | 438 kts | 218° |
| 2026-05-08 15:02 | 0.39627 | 74.24887 | 30147 ft | 435 kts | 218° |
| 2026-05-08 15:02 | 0.37320 | 74.22946 | 29649 ft | 432 kts | 219° |
| 2026-05-08 15:03 | 0.35028 | 74.21019 | 29160 ft | 429 kts | 219° |
| 2026-05-08 15:03 | 0.32756 | 74.19110 | 28680 ft | 425 kts | 219° |
| 2026-05-08 15:03 | 0.30500 | 74.17213 | 28208 ft | 422 kts | 219° |
| 2026-05-08 15:03 | 0.28265 | 74.15339 | 27736 ft | 418 kts | 219° |
| 2026-05-08 15:04 | 0.26045 | 74.13479 | 27272 ft | 415 kts | 219° |
| 2026-05-08 15:04 | 0.23847 | 74.11629 | 26788 ft | 412 kts | 219° |
| 2026-05-08 15:04 | 0.21666 | 74.09790 | 26310 ft | 409 kts | 220° |
| 2026-05-08 15:04 | 0.19496 | 74.07965 | 25811 ft | 407 kts | 220° |
| 2026-05-08 15:05 | 0.17339 | 74.06155 | 25316 ft | 404 kts | 220° |
| 2026-05-08 15:05 | 0.15199 | 74.04359 | 24805 ft | 402 kts | 220° |
| 2026-05-08 15:05 | 0.13062 | 74.02562 | 24285 ft | 399 kts | 220° |
| 2026-05-08 15:05 | 0.10946 | 74.00779 | 23768 ft | 397 kts | 220° |
| 2026-05-08 15:06 | 0.08840 | 73.99005 | 23244 ft | 395 kts | 220° |
| 2026-05-08 15:06 | 0.06745 | 73.97242 | 22738 ft | 393 kts | 220° |
| 2026-05-08 15:06 | 0.04668 | 73.95496 | 22346 ft | 388 kts | 220° |
| 2026-05-08 15:06 | 0.02604 | 73.93766 | 21834 ft | 386 kts | 220° |
| 2026-05-08 15:07 | 0.00557 | 73.92050 | 21311 ft | 384 kts | 221° |
| 2026-05-08 15:07 | -0.01478 | 73.90342 | 20986 ft | 379 kts | 221° |
| 2026-05-08 15:07 | -0.03489 | 73.88657 | 20533 ft | 376 kts | 221° |
| 2026-05-08 15:07 | -0.05486 | 73.86985 | 20064 ft | 373 kts | 221° |
| 2026-05-08 15:08 | -0.07464 | 73.85324 | 19617 ft | 370 kts | 221° |
| 2026-05-08 15:08 | -0.08763 | 73.84229 | 19312 ft | 368 kts | 221° |
| 2026-05-08 15:08 | -0.11371 | 73.82032 | 18727 ft | 364 kts | 221° |
| 2026-05-08 15:08 | -0.13298 | 73.80409 | 18293 ft | 361 kts | 222° |
| 2026-05-08 15:09 | -0.15192 | 73.78816 | 17847 ft | 357 kts | 222° |
| 2026-05-08 15:09 | -0.17075 | 73.77233 | 17137 ft | 350 kts | 222° |
| 2026-05-08 15:09 | -0.18904 | 73.75695 | 16707 ft | 338 kts | 222° |
| 2026-05-08 15:09 | -0.20672 | 73.74212 | 16308 ft | 327 kts | 222° |
| 2026-05-08 15:10 | -0.22407 | 73.72757 | 15914 ft | 325 kts | 222° |
| 2026-05-08 15:10 | -0.24134 | 73.71307 | 15529 ft | 324 kts | 222° |
| 2026-05-08 15:10 | -0.25856 | 73.69858 | 15144 ft | 323 kts | 223° |
| 2026-05-08 15:10 | -0.27566 | 73.68416 | 14758 ft | 322 kts | 223° |
| 2026-05-08 15:11 | -0.29274 | 73.66978 | 14375 ft | 321 kts | 222° |
| 2026-05-08 15:11 | -0.30978 | 73.65546 | 13986 ft | 319 kts | 223° |
| 2026-05-08 15:11 | -0.32678 | 73.64116 | 13605 ft | 318 kts | 223° |
| 2026-05-08 15:11 | -0.34368 | 73.62697 | 13218 ft | 317 kts | 223° |
| 2026-05-08 15:12 | -0.36051 | 73.61288 | 12840 ft | 315 kts | 223° |
| 2026-05-08 15:12 | -0.37728 | 73.59883 | 12450 ft | 313 kts | 223° |
| 2026-05-08 15:12 | -0.39392 | 73.58483 | 12052 ft | 313 kts | 223° |
| 2026-05-08 15:12 | -0.41051 | 73.57087 | 11660 ft | 311 kts | 223° |
| 2026-05-08 15:13 | -0.42702 | 73.55700 | 11268 ft | 309 kts | 223° |
| 2026-05-08 15:13 | -0.44340 | 73.54324 | 10868 ft | 307 kts | 223° |
| 2026-05-08 15:13 | -0.45959 | 73.52964 | 10555 ft | 302 kts | 223° |
| 2026-05-08 15:13 | -0.47559 | 73.51623 | 10201 ft | 299 kts | 223° |
| 2026-05-08 15:14 | -0.49141 | 73.50291 | 9865 ft | 294 kts | 223° |
| 2026-05-08 15:14 | -0.50697 | 73.48979 | 9433 ft | 294 kts | 223° |
| 2026-05-08 15:14 | -0.52259 | 73.47664 | 9016 ft | 292 kts | 223° |
| 2026-05-08 15:14 | -0.53808 | 73.46358 | 8599 ft | 291 kts | 223° |
| 2026-05-08 15:15 | -0.55350 | 73.45063 | 8176 ft | 289 kts | 223° |
| 2026-05-08 15:15 | -0.56884 | 73.43776 | 7755 ft | 287 kts | 223° |
| 2026-05-08 15:15 | -0.58405 | 73.42498 | 7324 ft | 285 kts | 223° |
| 2026-05-08 15:15 | -0.59914 | 73.41230 | 6893 ft | 283 kts | 223° |
| 2026-05-08 15:16 | -0.61410 | 73.39970 | 6462 ft | 279 kts | 223° |
| 2026-05-08 15:16 | -0.62895 | 73.38720 | 6026 ft | 279 kts | 223° |
| 2026-05-08 15:16 | -0.64374 | 73.37481 | 5585 ft | 277 kts | 223° |
| 2026-05-08 15:16 | -0.65846 | 73.36247 | 5144 ft | 275 kts | 223° |
| 2026-05-08 15:17 | -0.67303 | 73.35021 | 4704 ft | 272 kts | 223° |
| 2026-05-08 15:17 | -0.68722 | 73.33830 | 4263 ft | 260 kts | 223° |
| 2026-05-08 15:17 | -0.70072 | 73.32700 | 3844 ft | 246 kts | 224° |
| 2026-05-08 15:17 | -0.71244 | 73.31537 | 3443 ft | 230 kts | 243° |
| 2026-05-08 15:18 | -0.71561 | 73.30063 | 3066 ft | 215 kts | 276° |
| 2026-05-08 15:18 | -0.71355 | 73.28611 | 2693 ft | 209 kts | 278° |
| 2026-05-08 15:18 | -0.71137 | 73.27206 | 2338 ft | 202 kts | 279° |
| 2026-05-08 15:18 | -0.70922 | 73.25840 | 1978 ft | 197 kts | 279° |
| 2026-05-08 15:19 | -0.70715 | 73.24525 | 1641 ft | 187 kts | 279° |
| 2026-05-08 15:19 | -0.70520 | 73.23278 | 1411 ft | 175 kts | 279° |
| 2026-05-08 15:19 | -0.70342 | 73.22125 | 1154 ft | 162 kts | 279° |
| 2026-05-08 15:19 | -0.70180 | 73.21087 | 961 ft | 145 kts | 280° |
| 2026-05-08 15:20 | -0.70034 | 73.20132 | 775 ft | 135 kts | 279° |
| 2026-05-08 15:20 | -0.69896 | 73.19224 | 591 ft | 131 kts | 279° |
| 2026-05-08 15:20 | -0.69759 | 73.18332 | 402 ft | 130 kts | 279° |
| 2026-05-08 15:20 | -0.69628 | 73.17442 | 230 ft | 129 kts | 278° |
| 2026-05-08 15:21 | -0.69477 | 73.16552 | 60 ft | 130 kts | 280° |
| 2026-05-08 15:21 | -0.69349 | 73.15717 | 8 ft | 106 kts | 278° |
| 2026-05-08 15:21 | -0.69250 | 73.15084 | 11 ft | 81 kts | 278° |
| 2026-05-08 15:21 | -0.69174 | 73.14580 | 9 ft | 67 kts | 279° |
| 2026-05-08 15:22 | -0.69108 | 73.14158 | 7 ft | 56 kts | 278° |
| 2026-05-08 15:22 | -0.69057 | 73.13830 | 10 ft | 32 kts | 278° |
| 2026-05-08 15:22 | -0.69045 | 73.13706 | 11 ft | 9 kts | 246° |
| 2026-05-08 15:22 | -0.69075 | 73.13715 | 10 ft | 6 kts | 82° |
| 2026-05-08 15:23 | -0.69059 | 73.13757 | 9 ft | 7 kts | 71° |
| 2026-05-08 15:23 | -0.69058 | 73.13805 | 9 ft | 7 kts | 95° |
| 2026-05-08 15:23 | -0.69070 | 73.13902 | 7 ft | 17 kts | 98° |
| 2026-05-08 15:23 | -0.69089 | 73.14024 | 9 ft | 20 kts | 99° |
| 2026-05-08 15:24 | -0.69111 | 73.14172 | 7 ft | 22 kts | 98° |
| 2026-05-08 15:24 | -0.69140 | 73.14355 | 8 ft | 30 kts | 99° |
| 2026-05-08 15:24 | -0.69173 | 73.14559 | 11 ft | 30 kts | 98° |
| 2026-05-08 15:24 | -0.69202 | 73.14759 | 13 ft | 29 kts | 98° |
| 2026-05-08 15:25 | -0.69233 | 73.14959 | 14 ft | 27 kts | 98° |
| 2026-05-08 15:25 | -0.69262 | 73.15153 | 11 ft | 28 kts | 98° |
| 2026-05-08 15:25 | -0.69292 | 73.15351 | 11 ft | 25 kts | 98° |
| 2026-05-08 15:25 | -0.69315 | 73.15498 | 9 ft | 11 kts | 99° |
| 2026-05-08 15:26 | -0.69318 | 73.15559 | 9 ft | 7 kts | 60° |
| 2026-05-08 15:26 | -0.69274 | 73.15572 | 8 ft | 6 kts | 6° |
| 2026-05-08 15:26 | -0.69233 | 73.15577 | 10 ft | 5 kts | 8° |
| 2026-05-08 15:26 | -0.69201 | 73.15582 | 9 ft | 4 kts | 9° |
| 2026-05-08 15:27 | -0.69176 | 73.15589 | 9 ft | 3 kts | 29° |
| 2026-05-08 15:27 | -0.69164 | 73.15606 | 9 ft | 3 kts | 66° |
| 2026-05-08 15:27 | -0.69162 | 73.15634 | 9 ft | 5 kts | 90° |
| 2026-05-08 15:27 | -0.69165 | 73.15669 | 9 ft | 5 kts | 96° |
| 2026-05-08 15:28 | -0.69173 | 73.15726 | 10 ft | 9 kts | 98° |
| 2026-05-08 15:28 | -0.69181 | 73.15784 | 9 ft | 8 kts | 98° |
| 2026-05-08 15:28 | -0.69165 | 73.15805 | 9 ft | 4 kts | 351° |
| 2026-05-08 15:28 | -0.69154 | 73.15795 | 9 ft | 2 kts | 307° |
| 2026-05-08 15:29 | -0.69143 | 73.15786 | 9 ft | 3 kts | 333° |
| 2026-05-08 15:29 | -0.69131 | 73.15790 | 9 ft | 0 kts | 26° |
| 2026-05-08 15:29 | -0.69132 | 73.15801 | 9 ft | 0 kts | 8° |